Time;durP1;ratioP1;P1;durP2;ratioP2;P2;SDS_P1;SDS_P2;PMS_P1;PMS_P2;Temp;Humidity;BMP_temperature;BMP_pressure;BME280_temperature;BME280_humidity;BME280_pressure;Samples;Min_cycle;Max_cycle;Signal;HPM_P1;HPM_P2
2021/12/01 00:02:19;;;;;;;4.68;3.38;;;24.50;99.90;;;;;;5044032;28;20150;-79
2021/12/01 00:04:46;;;;;;;6.40;3.90;;;24.40;99.90;;;;;;5046555;28;20100;-78
2021/12/01 00:07:13;;;;;;;9.05;3.75;;;24.40;99.90;;;;;;5046602;28;20036;-78
2021/12/01 00:09:41;;;;;;;3.90;2.80;;;24.30;99.90;;;;;;5044036;28;20025;-76
2021/12/01 00:12:10;;;;;;;7.63;3.13;;;24.30;99.90;;;;;;5048183;28;20073;-77
2021/12/01 00:14:37;;;;;;;5.78;3.53;;;24.30;99.90;;;;;;5047983;28;21660;-79
2021/12/01 00:17:10;;;;;;;4.90;3.72;;;24.30;99.90;;;;;;5042272;28;20187;-76
2021/12/01 00:19:38;;;;;;;4.40;3.78;;;24.30;99.90;;;;;;5045056;28;20048;-76
2021/12/01 00:22:06;;;;;;;5.43;3.60;;;24.40;99.90;;;;;;5047237;28;20440;-77
2021/12/01 00:24:33;;;;;;;5.07;3.53;;;24.40;99.90;;;;;;5037575;28;20025;-78
2021/12/01 00:27:01;;;;;;;4.38;2.90;;;24.50;99.90;;;;;;5044941;28;20053;-77
2021/12/01 00:29:28;;;;;;;5.88;3.00;;;24.40;99.90;;;;;;5048215;28;20025;-75
2021/12/01 00:31:56;;;;;;;4.90;3.45;;;24.40;99.90;;;;;;5048931;28;20057;-75
2021/12/01 00:34:23;;;;;;;5.95;3.35;;;24.50;99.90;;;;;;5043738;28;20122;-76
2021/12/01 00:36:51;;;;;;;5.28;3.47;;;24.50;99.90;;;;;;5049490;28;20069;-75
2021/12/01 00:39:18;;;;;;;8.77;4.30;;;24.70;99.90;;;;;;5050590;28;20081;-76
2021/12/01 00:41:48;;;;;;;6.88;3.45;;;24.70;99.90;;;;;;5054751;28;20029;-77
2021/12/01 00:44:15;;;;;;;8.85;4.82;;;24.80;99.90;;;;;;5053127;28;20029;-77
2021/12/01 00:46:54;;;;;;;5.18;3.20;;;24.90;99.90;;;;;;5055146;28;20100;-76
2021/12/01 00:49:21;;;;;;;5.85;3.83;;;25.00;99.90;;;;;;5054819;28;20087;-76
2021/12/01 00:51:49;;;;;;;4.82;3.40;;;25.10;99.90;;;;;;5059651;28;20029;-77
2021/12/01 00:54:17;;;;;;;4.85;3.22;;;25.30;99.90;;;;;;5056314;28;20518;-77
2021/12/01 00:56:49;;;;;;;6.13;3.20;;;25.40;99.90;;;;;;5053675;28;20445;-77
2021/12/01 00:59:17;;;;;;;6.03;3.70;;;25.60;99.90;;;;;;5052119;28;20032;-75
2021/12/01 01:01:46;;;;;;;4.68;3.13;;;26.10;99.90;;;;;;5052753;28;20103;-75
2021/12/01 01:04:14;;;;;;;5.25;2.95;;;26.70;99.90;;;;;;5048442;28;20053;-76
2021/12/01 01:06:42;;;;;;;5.35;3.65;;;27.20;99.90;;;;;;5049184;28;20029;-76
2021/12/01 01:09:10;;;;;;;4.07;3.03;;;28.00;99.90;;;;;;5047236;28;20029;-74
2021/12/01 01:17:22;;;;;;;4.15;2.60;;;29.50;99.90;;;;;;5055658;28;20078;-76
2021/12/01 01:19:50;;;;;;;3.08;2.20;;;29.30;99.90;;;;;;5050054;28;20041;-76
2021/12/01 01:22:17;;;;;;;5.20;2.80;;;29.20;99.90;;;;;;5053781;28;20025;-75
2021/12/01 01:24:45;;;;;;;3.38;2.70;;;28.90;99.90;;;;;;5050391;28;20052;-75
2021/12/01 01:27:12;;;;;;;6.57;2.78;;;28.80;99.90;;;;;;5054973;28;20481;-78
2021/12/01 01:29:39;;;;;;;6.38;3.03;;;29.00;99.90;;;;;;5062887;28;20170;-77
2021/12/01 01:32:07;;;;;;;4.22;3.05;;;29.30;99.90;;;;;;5056667;28;20431;-74
2021/12/01 01:34:34;;;;;;;4.63;2.58;;;29.50;99.90;;;;;;5056563;28;20026;-77
2021/12/01 01:37:02;;;;;;;5.97;2.75;;;29.50;99.90;;;;;;5047744;28;20021;-77
2021/12/01 01:39:29;;;;;;;4.05;2.45;;;29.40;99.90;;;;;;5048097;28;20136;-76
2021/12/01 01:41:56;;;;;;;4.93;2.88;;;29.50;99.90;;;;;;5044017;28;20033;-76
2021/12/01 01:44:24;;;;;;;5.00;2.88;;;30.00;99.90;;;;;;5050587;28;20048;-78
2021/12/01 01:46:51;;;;;;;4.82;3.05;;;30.10;99.90;;;;;;5051101;28;20036;-76
2021/12/01 01:49:23;;;;;;;4.07;2.70;;;29.70;99.90;;;;;;5049865;28;20037;-75
2021/12/01 01:51:50;;;;;;;3.95;2.50;;;29.50;99.90;;;;;;5046367;28;20025;-77
2021/12/01 01:54:18;;;;;;;3.50;2.40;;;29.30;99.90;;;;;;5035942;28;20029;-76
2021/12/01 01:56:46;;;;;;;4.35;2.78;;;29.10;99.90;;;;;;5041940;28;20048;-76
2021/12/01 01:59:13;;;;;;;5.03;3.10;;;28.80;99.90;;;;;;5039987;28;20025;-76
2021/12/01 02:01:53;;;;;;;3.25;2.30;;;28.70;99.90;;;;;;5047830;28;20025;-78
2021/12/01 02:04:22;;;;;;;3.53;2.72;;;28.70;99.90;;;;;;5051236;28;20067;-78
2021/12/01 02:06:50;;;;;;;5.35;2.60;;;28.80;99.90;;;;;;5041460;28;20365;-79
2021/12/01 02:09:21;;;;;;;4.88;3.00;;;28.90;99.90;;;;;;5044007;28;20478;-78
2021/12/01 02:11:51;;;;;;;4.00;2.30;;;28.90;99.90;;;;;;5047965;28;20044;-75
2021/12/01 02:14:18;;;;;;;6.13;2.80;;;29.30;99.90;;;;;;5053190;28;20079;-78
2021/12/01 02:16:46;;;;;;;5.55;2.45;;;29.80;99.90;;;;;;5036800;28;20057;-78
2021/12/01 02:19:13;;;;;;;4.82;2.40;;;30.30;99.90;;;;;;5041354;28;20461;-78
2021/12/01 02:21:41;;;;;;;3.78;2.20;;;30.50;99.90;;;;;;5051967;28;20035;-78
2021/12/01 02:24:13;;;;;;;4.47;2.13;;;30.70;99.90;;;;;;5050286;28;20513;-78
2021/12/01 02:26:44;;;;;;;4.78;2.40;;;31.00;99.40;;;;;;5045018;28;20541;-79
2021/12/01 02:29:18;;;;;;;4.03;2.20;;;30.90;98.90;;;;;;5047845;28;20484;-78
2021/12/01 02:31:50;;;;;;;4.28;1.88;;;30.70;98.50;;;;;;5040708;28;20140;-78
2021/12/01 02:34:24;;;;;;;3.85;2.05;;;30.30;98.70;;;;;;5043888;28;20549;-77
2021/12/01 02:36:55;;;;;;;2.90;1.90;;;30.10;99.20;;;;;;5047139;28;21206;-79
2021/12/01 02:39:23;;;;;;;3.20;1.88;;;29.70;99.30;;;;;;5035504;28;20090;-78
2021/12/01 02:42:09;;;;;;;3.15;1.88;;;29.50;99.90;;;;;;5045494;28;20028;-78
2021/12/01 02:44:37;;;;;;;5.82;2.38;;;29.00;99.90;;;;;;5050591;28;20041;-78
2021/12/01 02:47:04;;;;;;;3.20;2.25;;;28.70;99.90;;;;;;5048366;28;20040;-77
2021/12/01 02:49:32;;;;;;;2.88;2.03;;;28.60;99.90;;;;;;5049493;28;20028;-77
2021/12/01 02:51:59;;;;;;;3.70;2.20;;;28.50;99.90;;;;;;5049821;28;20556;-77
2021/12/01 02:54:29;;;;;;;2.10;1.63;;;28.50;99.90;;;;;;5039383;28;20040;-77
2021/12/01 02:56:57;;;;;;;2.30;1.30;;;28.40;99.90;;;;;;5046577;28;20033;-78
2021/12/01 02:59:25;;;;;;;4.10;1.85;;;28.20;99.90;;;;;;5039297;28;20052;-77
2021/12/01 03:01:56;;;;;;;2.17;1.35;;;28.10;99.90;;;;;;5041636;28;20036;-79
2021/12/01 03:04:24;;;;;;;3.03;1.58;;;27.90;99.90;;;;;;5046435;28;20090;-78
2021/12/01 03:06:53;;;;;;;2.08;1.30;;;27.70;99.90;;;;;;5047045;28;20017;-80
2021/12/01 03:09:20;;;;;;;1.77;1.33;;;27.60;99.90;;;;;;5043264;28;20025;-80
2021/12/01 03:11:49;;;;;;;2.05;1.30;;;27.40;99.90;;;;;;5044322;28;20032;-81
2021/12/01 03:14:18;;;;;;;3.05;1.75;;;27.30;99.90;;;;;;5045186;28;20099;-77
2021/12/01 03:16:48;;;;;;;2.40;1.17;;;27.20;99.90;;;;;;5037043;28;20129;-82
2021/12/01 03:19:16;;;;;;;5.65;1.38;;;27.10;99.90;;;;;;5053287;28;20117;-82
2021/12/01 03:21:44;;;;;;;2.22;1.08;;;27.00;99.90;;;;;;5048391;28;20050;-80
2021/12/01 03:24:12;;;;;;;2.05;0.85;;;26.80;99.90;;;;;;5038343;28;20025;-77
2021/12/01 03:26:40;;;;;;;2.33;1.25;;;26.70;99.90;;;;;;5047702;28;20033;-85
2021/12/01 03:29:08;;;;;;;4.32;0.93;;;26.70;99.90;;;;;;5046953;28;20017;-86
2021/12/01 03:31:36;;;;;;;1.35;0.75;;;26.70;99.90;;;;;;5045127;28;20053;-79
2021/12/01 03:34:05;;;;;;;1.55;0.68;;;26.80;99.90;;;;;;5047901;28;20040;-79
2021/12/01 03:36:33;;;;;;;4.13;0.90;;;26.90;99.90;;;;;;5036743;28;20033;-79
2021/12/01 03:39:01;;;;;;;3.50;1.10;;;27.00;99.90;;;;;;5044111;28;20032;-82
2021/12/01 03:41:28;;;;;;;1.63;1.08;;;27.20;99.90;;;;;;5047386;28;20025;-77
2021/12/01 03:43:55;;;;;;;3.45;1.90;;;27.10;99.90;;;;;;5048482;28;20036;-78
2021/12/01 03:46:23;;;;;;;2.83;1.88;;;26.90;99.90;;;;;;5045823;28;20116;-75
2021/12/01 03:48:51;;;;;;;4.60;2.40;;;26.90;99.90;;;;;;5045061;28;20028;-77
2021/12/01 03:51:18;;;;;;;3.00;2.45;;;26.80;99.90;;;;;;5045103;28;20126;-76
2021/12/01 03:53:45;;;;;;;3.80;2.38;;;26.70;99.90;;;;;;5044318;28;20112;-77
2021/12/01 03:56:13;;;;;;;3.13;2.33;;;26.60;99.90;;;;;;5046418;28;20036;-77
2021/12/01 03:58:40;;;;;;;3.83;2.10;;;26.60;99.90;;;;;;5034752;28;20032;-76
2021/12/01 04:01:12;;;;;;;2.70;2.00;;;26.60;99.90;;;;;;5043347;28;20547;-77
2021/12/01 04:03:40;;;;;;;2.97;1.80;;;26.60;99.90;;;;;;5043012;28;20171;-76
2021/12/01 04:06:07;;;;;;;2.10;1.70;;;26.70;99.90;;;;;;5038165;28;20048;-76
2021/12/01 04:08:36;;;;;;;2.15;1.67;;;26.80;99.90;;;;;;5039753;28;20468;-75
2021/12/01 04:11:03;;;;;;;1.80;1.30;;;26.90;99.90;;;;;;5045552;28;20033;-77
2021/12/01 04:13:31;;;;;;;1.73;1.30;;;26.90;99.90;;;;;;5040010;28;20020;-76
2021/12/01 04:15:58;;;;;;;2.10;1.90;;;26.90;99.90;;;;;;5038706;28;20088;-76
2021/12/01 04:18:27;;;;;;;1.85;1.05;;;27.20;99.90;;;;;;5030451;28;20037;-76
2021/12/01 04:20:55;;;;;;;4.15;1.00;;;27.40;99.90;;;;;;5042427;28;20029;-77
2021/12/01 04:23:22;;;;;;;2.40;1.10;;;27.50;99.90;;;;;;5036626;28;20036;-74
2021/12/01 04:25:50;;;;;;;2.05;0.98;;;27.90;99.90;;;;;;5042397;28;20072;-74
2021/12/01 04:28:18;;;;;;;1.83;1.55;;;28.10;99.50;;;;;;5040579;28;20032;-76
2021/12/01 04:30:45;;;;;;;2.20;1.15;;;28.50;99.60;;;;;;5039234;28;20072;-75
2021/12/01 04:33:13;;;;;;;2.88;0.90;;;28.70;99.20;;;;;;5038928;28;20044;-77
2021/12/01 04:35:40;;;;;;;1.13;0.80;;;29.00;98.10;;;;;;5042390;28;20056;-76
2021/12/01 04:38:08;;;;;;;1.00;0.75;;;29.30;98.40;;;;;;5041520;28;20022;-78
2021/12/01 04:40:36;;;;;;;1.30;1.02;;;29.70;98.10;;;;;;5040375;28;20044;-78
2021/12/01 04:43:03;;;;;;;1.10;0.70;;;30.00;97.40;;;;;;5039520;28;20491;-79
2021/12/01 04:45:32;;;;;;;0.95;0.63;;;30.00;96.20;;;;;;5050542;28;20033;-82
2021/12/01 04:47:59;;;;;;;2.85;1.15;;;30.20;96.80;;;;;;5039394;28;20468;-78
2021/12/01 04:50:28;;;;;;;2.17;0.65;;;30.40;96.10;;;;;;5038095;28;20099;-76
2021/12/01 04:52:58;;;;;;;1.02;0.60;;;30.20;96.20;;;;;;5045994;28;20025;-76
2021/12/01 04:55:27;;;;;;;1.90;0.88;;;29.60;96.20;;;;;;5036985;28;20017;-78
2021/12/01 04:57:54;;;;;;;2.05;0.90;;;29.20;96.80;;;;;;5043082;28;20033;-78
2021/12/01 05:00:28;;;;;;;1.60;1.02;;;28.90;97.10;;;;;;5038490;28;20078;-78
2021/12/01 05:02:56;;;;;;;1.20;1.02;;;28.70;97.30;;;;;;5041278;28;20056;-77
2021/12/01 05:05:23;;;;;;;1.10;0.85;;;28.70;97.60;;;;;;5042418;28;20434;-78
2021/12/01 05:07:51;;;;;;;1.83;0.98;;;28.90;98.00;;;;;;5042309;28;20028;-76
2021/12/01 05:10:19;;;;;;;3.05;0.70;;;29.00;97.70;;;;;;5043770;28;20033;-77
2021/12/01 05:12:47;;;;;;;0.90;0.70;;;28.90;97.70;;;;;;5045539;28;20069;-75
2021/12/01 05:15:15;;;;;;;1.83;0.80;;;29.00;97.20;;;;;;5044501;28;20029;-77
2021/12/01 05:17:42;;;;;;;1.50;1.05;;;29.00;97.20;;;;;;5043523;28;20033;-78
2021/12/01 05:20:11;;;;;;;1.17;0.70;;;29.00;97.00;;;;;;5047614;28;20116;-79
2021/12/01 05:22:42;;;;;;;3.33;0.60;;;28.90;96.90;;;;;;5045512;28;20040;-76
2021/12/01 05:25:10;;;;;;;0.68;0.50;;;28.60;97.30;;;;;;5042303;28;20048;-77
2021/12/01 05:27:38;;;;;;;0.98;0.60;;;28.30;97.40;;;;;;5040713;28;20025;-76
2021/12/01 05:30:06;;;;;;;1.20;0.77;;;28.20;97.70;;;;;;5037435;28;20033;-75
2021/12/01 05:32:34;;;;;;;4.18;1.15;;;28.30;97.70;;;;;;5042351;28;21679;-77
2021/12/01 05:35:02;;;;;;;1.33;0.75;;;28.50;97.90;;;;;;5042855;28;20112;-75
2021/12/01 05:37:29;;;;;;;0.90;0.43;;;28.30;97.10;;;;;;5040940;28;20036;-77
2021/12/01 05:39:56;;;;;;;0.75;0.30;;;28.20;97.60;;;;;;5036021;28;20228;-76
2021/12/01 05:42:24;;;;;;;0.57;0.40;;;28.10;97.50;;;;;;5040869;28;20062;-76
2021/12/01 05:44:51;;;;;;;0.63;0.40;;;27.90;97.30;;;;;;5045505;28;20492;-77
2021/12/01 05:47:19;;;;;;;1.50;0.45;;;27.70;97.70;;;;;;5040753;28;20097;-77
2021/12/01 05:49:46;;;;;;;1.00;0.50;;;27.60;97.80;;;;;;5042283;28;20392;-76
2021/12/01 05:52:16;;;;;;;0.70;0.60;;;27.30;97.90;;;;;;5047340;28;20044;-76
2021/12/01 05:54:46;;;;;;;1.00;0.50;;;27.10;98.30;;;;;;5044208;28;20114;-77
2021/12/01 05:57:13;;;;;;;0.40;0.35;;;27.00;98.50;;;;;;5042732;28;20385;-76
2021/12/01 05:59:41;;;;;;;0.85;0.50;;;27.00;98.60;;;;;;5039853;28;20024;-76
2021/12/01 06:02:09;;;;;;;1.60;0.50;;;27.10;98.50;;;;;;5040398;28;20029;-75
2021/12/01 06:04:36;;;;;;;3.45;0.50;;;27.10;98.30;;;;;;5045463;28;20044;-76
2021/12/01 06:07:04;;;;;;;1.40;0.30;;;27.20;98.50;;;;;;5038147;28;20527;-77
2021/12/01 06:09:31;;;;;;;1.77;0.40;;;27.20;98.30;;;;;;5037346;28;20036;-75
2021/12/01 06:11:59;;;;;;;0.30;0.20;;;27.20;98.00;;;;;;5046345;28;20016;-74
2021/12/01 06:14:27;;;;;;;0.73;0.45;;;27.20;98.10;;;;;;5039921;28;20377;-75
2021/12/01 06:16:54;;;;;;;1.35;0.30;;;27.30;97.70;;;;;;5037344;28;20032;-75
2021/12/01 06:19:22;;;;;;;3.60;0.60;;;27.30;98.10;;;;;;5043990;28;20025;-75
2021/12/01 06:21:49;;;;;;;3.33;0.40;;;27.30;97.80;;;;;;5048879;28;20035;-74
2021/12/01 06:24:16;;;;;;;0.95;0.40;;;27.30;97.70;;;;;;5046531;28;20052;-75
2021/12/01 06:26:44;;;;;;;3.75;0.70;;;27.40;97.90;;;;;;5040332;28;20100;-75
2021/12/01 06:29:11;;;;;;;0.30;0.20;;;27.40;97.50;;;;;;5047207;28;20037;-77
2021/12/01 06:31:39;;;;;;;1.65;0.40;;;27.30;98.00;;;;;;5042562;28;20049;-75
2021/12/01 06:34:06;;;;;;;0.85;0.60;;;27.20;97.90;;;;;;5042367;28;20033;-76
2021/12/01 06:36:34;;;;;;;2.17;0.52;;;27.10;97.90;;;;;;5044045;28;20492;-77
2021/12/01 06:39:01;;;;;;;1.15;0.40;;;27.00;98.00;;;;;;5041581;28;20029;-80
2021/12/01 06:41:29;;;;;;;0.22;0.20;;;26.90;98.00;;;;;;5040106;28;20060;-76
2021/12/01 06:43:56;;;;;;;0.70;0.22;;;26.70;98.20;;;;;;5041894;28;20041;-77
2021/12/01 06:46:24;;;;;;;1.92;0.40;;;26.70;98.70;;;;;;5044964;28;20026;-76
2021/12/01 06:48:52;;;;;;;0.28;0.28;;;26.80;98.80;;;;;;5036992;28;20496;-76
2021/12/01 06:51:19;;;;;;;1.95;0.30;;;26.80;98.80;;;;;;5038835;28;20127;-76
2021/12/01 06:53:46;;;;;;;1.48;0.57;;;26.80;98.40;;;;;;5041735;28;20025;-76
2021/12/01 06:56:16;;;;;;;0.70;0.30;;;26.90;98.60;;;;;;5036934;28;20041;-76
2021/12/01 06:58:44;;;;;;;1.13;0.28;;;26.80;98.70;;;;;;5042818;28;20527;-77
2021/12/01 07:01:11;;;;;;;0.50;0.30;;;26.80;98.90;;;;;;5046125;28;20171;-74
2021/12/01 07:03:39;;;;;;;0.52;0.40;;;26.70;98.50;;;;;;5042454;28;20025;-74
2021/12/01 07:06:07;;;;;;;0.38;0.20;;;26.70;98.80;;;;;;5043119;28;20440;-75
2021/12/01 07:08:35;;;;;;;0.57;0.20;;;26.60;98.80;;;;;;5037974;28;20085;-75
2021/12/01 07:11:04;;;;;;;1.02;0.28;;;26.50;98.50;;;;;;5047063;28;20076;-78
2021/12/01 07:13:33;;;;;;;0.50;0.22;;;26.30;98.90;;;;;;5043745;28;20032;-74
2021/12/01 07:16:02;;;;;;;1.83;0.20;;;26.20;99.00;;;;;;5047112;28;20040;-74
2021/12/01 07:18:30;;;;;;;4.80;0.45;;;26.10;99.10;;;;;;5043871;28;20040;-75
2021/12/01 07:20:58;;;;;;;0.20;0.10;;;26.00;99.10;;;;;;5043069;28;20025;-74
2021/12/01 07:23:27;;;;;;;0.50;0.20;;;26.00;99.20;;;;;;5045761;28;20499;-77
2021/12/01 07:25:54;;;;;;;0.47;0.20;;;25.90;99.30;;;;;;5049651;28;20377;-77
2021/12/01 07:28:21;;;;;;;0.75;0.30;;;25.80;99.60;;;;;;5046129;28;20550;-75
2021/12/01 07:30:49;;;;;;;0.20;0.20;;;25.70;99.80;;;;;;5049762;28;20051;-80
2021/12/01 07:33:17;;;;;;;2.40;0.22;;;25.60;99.90;;;;;;5048319;28;20025;-78
2021/12/01 07:35:44;;;;;;;3.47;0.40;;;25.50;99.90;;;;;;5037260;28;20025;-73
2021/12/01 07:38:13;;;;;;;0.10;0.05;;;25.40;99.90;;;;;;5034016;28;20068;-78
2021/12/01 07:40:40;;;;;;;0.13;0.00;;;25.30;99.90;;;;;;5036469;28;20025;-77
2021/12/01 07:43:08;;;;;;;0.47;0.40;;;25.30;99.90;;;;;;5048998;28;20025;-75
2021/12/01 07:45:35;;;;;;;0.17;0.10;;;25.20;99.90;;;;;;5047396;28;20036;-79
2021/12/01 07:48:03;;;;;;;0.45;0.10;;;25.20;99.90;;;;;;5049492;28;20384;-78
2021/12/01 07:50:30;;;;;;;0.70;0.30;;;25.10;99.90;;;;;;5049669;28;20032;-76
2021/12/01 07:52:58;;;;;;;1.85;0.20;;;25.10;99.90;;;;;;5048093;28;20031;-77
2021/12/01 07:55:25;;;;;;;2.47;0.22;;;25.10;99.90;;;;;;5035987;28;20021;-77
2021/12/01 07:57:52;;;;;;;10.50;1.38;;;25.00;99.90;;;;;;5035525;28;20026;-76
2021/12/01 08:00:20;;;;;;;2.05;0.40;;;25.00;99.90;;;;;;5052779;28;20025;-75
2021/12/01 08:02:47;;;;;;;0.40;0.10;;;25.00;99.90;;;;;;5053629;28;20067;-75
2021/12/01 08:05:15;;;;;;;2.53;0.73;;;24.90;99.90;;;;;;5053592;28;20068;-77
2021/12/01 08:07:45;;;;;;;0.30;0.10;;;24.90;99.90;;;;;;5053000;28;20369;-81
2021/12/01 08:10:12;;;;;;;1.30;0.15;;;24.80;99.90;;;;;;5048423;28;20032;-76
2021/12/01 08:12:40;;;;;;;0.20;0.20;;;24.80;99.90;;;;;;5051540;28;20464;-76
2021/12/01 08:15:08;;;;;;;2.00;0.20;;;24.70;99.90;;;;;;5050184;28;20061;-77
2021/12/01 08:17:36;;;;;;;0.10;0.10;;;24.70;99.90;;;;;;5050314;28;20108;-76
2021/12/01 08:20:04;;;;;;;0.20;0.10;;;24.70;99.90;;;;;;5053813;28;20029;-73
2021/12/01 08:22:32;;;;;;;0.40;0.20;;;24.70;99.90;;;;;;5052722;28;20032;-78
2021/12/01 08:25:00;;;;;;;2.47;0.20;;;24.70;99.90;;;;;;5040535;28;20049;-74
2021/12/01 08:27:30;;;;;;;10.73;0.50;;;24.70;99.90;;;;;;5052706;28;20032;-74
2021/12/01 08:29:57;;;;;;;0.70;0.20;;;24.60;99.90;;;;;;5047241;28;20388;-75
2021/12/01 08:32:24;;;;;;;1.73;0.20;;;24.60;99.90;;;;;;5053946;28;20025;-76
2021/12/01 08:34:52;;;;;;;7.80;0.38;;;24.50;99.90;;;;;;5048413;28;20087;-75
2021/12/01 08:37:21;;;;;;;1.50;0.30;;;24.50;99.90;;;;;;5051328;28;20075;-74
2021/12/01 08:39:50;;;;;;;1.10;0.10;;;24.40;99.90;;;;;;5050036;28;20083;-79
2021/12/01 08:42:18;;;;;;;0.32;0.10;;;24.30;99.90;;;;;;5047643;28;20025;-75
2021/12/01 08:44:46;;;;;;;2.63;0.30;;;24.20;99.90;;;;;;5051594;28;20044;-79
2021/12/01 08:47:20;;;;;;;2.88;0.35;;;24.10;99.90;;;;;;5051837;28;20040;-75
2021/12/01 08:49:48;;;;;;;0.45;0.10;;;24.00;99.90;;;;;;5052413;28;20112;-81
2021/12/01 08:52:16;;;;;;;0.52;0.10;;;23.90;99.90;;;;;;5051896;28;20082;-78
2021/12/01 08:54:44;;;;;;;0.60;0.20;;;23.70;99.90;;;;;;5050391;28;20017;-74
2021/12/01 08:57:12;;;;;;;0.20;0.17;;;23.70;99.90;;;;;;5048711;28;20029;-75
2021/12/01 08:59:40;;;;;;;1.80;0.30;;;23.60;99.90;;;;;;5052631;28;20114;-78
2021/12/01 09:02:07;;;;;;;0.45;0.20;;;23.50;99.90;;;;;;5052136;28;20532;-79
2021/12/01 09:04:36;;;;;;;0.47;0.10;;;23.40;99.90;;;;;;5049239;28;20045;-79
2021/12/01 09:07:04;;;;;;;0.75;0.17;;;23.30;99.90;;;;;;5052068;28;20365;-79
2021/12/01 09:09:31;;;;;;;0.63;0.10;;;23.30;99.90;;;;;;5051895;28;20033;-75
2021/12/01 09:11:59;;;;;;;0.25;0.10;;;23.20;99.90;;;;;;5050295;28;20035;-74
2021/12/01 09:14:27;;;;;;;1.25;0.20;;;23.20;99.90;;;;;;5052692;28;20033;-74
2021/12/01 09:16:56;;;;;;;1.33;0.20;;;23.10;99.90;;;;;;5051343;28;20082;-75
2021/12/01 09:19:23;;;;;;;3.03;0.30;;;23.10;99.90;;;;;;5051132;28;20772;-74
2021/12/01 09:21:51;;;;;;;1.25;0.35;;;23.00;99.90;;;;;;5050457;28;20540;-78
2021/12/01 09:24:20;;;;;;;1.33;0.30;;;22.90;99.90;;;;;;5051204;28;20090;-81
2021/12/01 09:26:49;;;;;;;1.65;0.10;;;22.80;99.90;;;;;;5050506;28;20021;-76
2021/12/01 09:29:19;;;;;;;1.13;0.20;;;22.80;99.90;;;;;;5052172;28;20107;-76
2021/12/01 09:31:47;;;;;;;0.60;0.13;;;22.70;99.90;;;;;;5052101;28;20053;-76
2021/12/01 09:34:15;;;;;;;0.35;0.10;;;22.70;99.90;;;;;;5053204;28;20111;-77
2021/12/01 09:36:42;;;;;;;0.17;0.10;;;22.60;99.90;;;;;;5051473;28;20035;-75
2021/12/01 09:39:09;;;;;;;0.45;0.30;;;22.60;99.90;;;;;;5052730;28;20036;-76
2021/12/01 09:41:38;;;;;;;0.47;0.35;;;22.50;99.90;;;;;;5049790;28;20025;-76
2021/12/01 09:44:05;;;;;;;0.20;0.10;;;22.50;99.90;;;;;;5052025;28;20039;-74
2021/12/01 09:46:33;;;;;;;0.30;0.10;;;22.50;99.90;;;;;;5050561;28;20500;-75
2021/12/01 09:49:01;;;;;;;0.63;0.20;;;22.40;99.90;;;;;;5049455;28;20028;-78
2021/12/01 09:51:29;;;;;;;1.13;0.30;;;22.40;99.90;;;;;;5051581;28;20024;-74
2021/12/01 09:54:01;;;;;;;0.63;0.32;;;22.40;99.90;;;;;;5050555;28;20087;-74
2021/12/01 09:56:29;;;;;;;2.15;0.60;;;22.40;99.90;;;;;;5049559;28;20044;-78
2021/12/01 09:58:57;;;;;;;0.95;0.40;;;22.40;99.90;;;;;;5050541;28;20096;-76
2021/12/01 10:01:26;;;;;;;1.92;0.63;;;22.40;99.90;;;;;;5049633;28;20078;-75
2021/12/01 10:03:54;;;;;;;6.25;0.30;;;22.30;99.90;;;;;;5052399;28;20040;-74
2021/12/01 10:06:25;;;;;;;0.75;0.20;;;22.30;99.90;;;;;;5051555;28;20063;-74
2021/12/01 10:09:11;;;;;;;0.45;0.30;;;22.30;99.90;;;;;;5049792;28;20029;-78
2021/12/01 10:11:41;;;;;;;0.30;0.20;;;22.20;99.90;;;;;;5051196;28;20040;-76
2021/12/01 10:14:17;;;;;;;0.57;0.20;;;22.20;99.90;;;;;;5052363;28;20032;-77
2021/12/01 10:16:45;;;;;;;1.08;0.20;;;22.20;99.90;;;;;;5051307;28;20029;-74
2021/12/01 10:19:15;;;;;;;0.50;0.22;;;22.10;99.90;;;;;;5033227;28;20030;-80
2021/12/01 10:21:48;;;;;;;0.70;0.20;;;22.00;99.90;;;;;;5045638;28;20052;-74
2021/12/01 10:24:25;;;;;;;0.30;0.15;;;22.00;99.90;;;;;;5047887;28;20108;-72
2021/12/01 10:26:56;;;;;;;1.38;0.20;;;22.00;99.90;;;;;;5050312;28;20036;-76
2021/12/01 10:29:40;;;;;;;1.08;0.20;;;21.90;99.90;;;;;;5051395;28;20029;-75
2021/12/01 10:32:07;;;;;;;0.30;0.20;;;21.90;99.90;;;;;;5050927;28;20053;-74
2021/12/01 10:34:44;;;;;;;0.98;0.50;;;21.90;99.90;;;;;;5034971;28;20361;-80
2021/12/01 10:37:26;;;;;;;2.80;0.98;;;21.90;99.90;;;;;;5049904;28;20418;-76
2021/12/01 10:40:24;;;;;;;1.23;0.15;;;21.80;99.90;;;;;;5048720;28;20021;-76
2021/12/01 10:43:01;;;;;;;0.45;0.20;;;21.70;99.90;;;;;;5042788;28;20471;-75
2021/12/01 10:45:32;;;;;;;1.15;0.20;;;21.70;99.90;;;;;;5041237;28;20075;-73
2021/12/01 10:48:00;;;;;;;2.05;0.50;;;21.70;99.90;;;;;;5048911;28;20032;-76
2021/12/01 10:50:32;;;;;;;2.17;0.57;;;21.60;99.90;;;;;;5051052;28;20025;-77
2021/12/01 10:53:10;;;;;;;1.65;0.70;;;21.60;99.90;;;;;;5036225;28;20104;-79
2021/12/01 10:55:48;;;;;;;1.70;0.50;;;21.50;99.90;;;;;;5048505;28;20527;-75
2021/12/01 10:58:17;;;;;;;1.10;0.40;;;21.40;99.90;;;;;;5050833;28;20029;-77
2021/12/01 11:00:47;;;;;;;0.95;0.25;;;21.40;99.90;;;;;;5048605;28;20503;-74
2021/12/01 11:03:35;;;;;;;2.38;0.60;;;21.40;99.90;;;;;;5048742;28;20036;-79
2021/12/01 11:06:13;;;;;;;0.68;0.38;;;21.30;99.90;;;;;;5045272;28;20275;-81
2021/12/01 11:08:42;;;;;;;0.90;0.20;;;21.30;99.90;;;;;;5036749;28;20358;-79
2021/12/01 11:11:14;;;;;;;0.35;0.30;;;21.20;99.90;;;;;;5047426;28;20084;-83
2021/12/01 11:13:43;;;;;;;0.52;0.30;;;21.20;99.90;;;;;;5051362;28;20025;-79
2021/12/01 11:16:13;;;;;;;2.58;0.80;;;21.20;99.90;;;;;;5048734;28;20059;-78
2021/12/01 11:18:47;;;;;;;0.50;0.40;;;21.10;99.90;;;;;;5047584;28;20029;-84
2021/12/01 11:21:18;;;;;;;1.35;0.35;;;21.10;99.90;;;;;;5047736;28;20036;-78
2021/12/01 11:23:47;;;;;;;0.70;0.20;;;21.10;99.90;;;;;;5049051;28;20512;-78
2021/12/01 11:26:21;;;;;;;0.30;0.20;;;21.10;99.90;;;;;;5047570;28;20127;-75
2021/12/01 11:28:52;;;;;;;0.95;0.20;;;21.00;99.90;;;;;;5050051;28;20029;-78
2021/12/01 11:31:25;;;;;;;0.30;0.13;;;21.00;99.90;;;;;;5049859;28;20488;-79
2021/12/01 11:33:56;;;;;;;0.32;0.10;;;21.00;99.90;;;;;;5048604;28;20028;-76
2021/12/01 11:36:34;;;;;;;0.47;0.47;;;21.10;99.90;;;;;;5047681;28;20039;-82
2021/12/01 11:39:05;;;;;;;0.20;0.10;;;21.10;99.90;;;;;;5054821;28;20132;-77
2021/12/01 11:41:36;;;;;;;2.25;0.40;;;21.10;99.90;;;;;;5053107;28;20036;-76
2021/12/01 11:44:04;;;;;;;0.70;0.43;;;21.10;99.90;;;;;;5041511;28;20036;-74
2021/12/01 11:46:33;;;;;;;0.60;0.40;;;21.10;99.90;;;;;;5050643;28;20032;-74
2021/12/01 11:49:09;;;;;;;2.03;0.30;;;21.20;99.90;;;;;;5052984;28;20024;-78
2021/12/01 11:51:58;;;;;;;0.77;0.38;;;21.20;99.90;;;;;;5057171;28;20025;-73
2021/12/01 11:54:27;;;;;;;1.58;0.50;;;21.20;99.90;;;;;;5057959;28;20083;-76
2021/12/01 11:57:02;;;;;;;0.38;0.20;;;21.20;99.90;;;;;;5049607;28;20071;-73
2021/12/01 11:59:32;;;;;;;0.60;0.20;;;21.20;99.90;;;;;;5045411;28;20190;-73
2021/12/01 12:02:02;;;;;;;1.05;0.52;;;21.20;99.90;;;;;;5037253;28;20087;-76
2021/12/01 12:04:31;;;;;;;0.50;0.25;;;21.20;99.90;;;;;;5040443;28;20025;-77
2021/12/01 12:07:01;;;;;;;1.42;0.68;;;21.10;99.90;;;;;;5043711;28;20055;-78
2021/12/01 12:09:29;;;;;;;0.90;0.20;;;21.00;99.90;;;;;;5039936;28;20075;-79
2021/12/01 12:12:20;;;;;;;2.58;0.50;;;21.00;99.90;;;;;;5045182;28;20029;-73
2021/12/01 12:14:49;;;;;;;2.90;0.20;;;21.00;99.90;;;;;;5038074;28;20021;-81
2021/12/01 12:17:38;;;;;;;0.30;0.10;;;20.90;99.90;;;;;;5045012;28;20032;-78
2021/12/01 12:20:28;;;;;;;0.30;0.10;;;20.80;99.90;;;;;;5043129;28;20049;-80
2021/12/01 12:22:56;;;;;;;0.30;0.10;;;20.80;99.90;;;;;;5037757;28;20064;-79
2021/12/01 12:25:57;;;;;;;1.00;0.20;;;20.70;99.90;;;;;;5042396;28;20041;-83
2021/12/01 12:28:29;;;;;;;0.55;0.10;;;20.70;99.90;;;;;;5023552;28;20116;-81
2021/12/01 12:31:01;;;;;;;0.50;0.17;;;20.60;99.90;;;;;;5035163;28;20049;-81
2021/12/01 12:33:48;;;;;;;1.48;0.20;;;20.60;99.90;;;;;;5042596;28;20028;-80
2021/12/01 12:36:16;;;;;;;1.17;0.20;;;20.50;99.90;;;;;;5045791;28;20054;-77
2021/12/01 12:39:05;;;;;;;0.20;0.10;;;20.50;99.90;;;;;;5042139;28;20028;-77
2021/12/01 12:41:52;;;;;;;2.80;0.90;;;20.40;99.90;;;;;;5038331;28;20116;-81
2021/12/01 12:44:41;;;;;;;3.97;0.60;;;20.40;99.90;;;;;;5039626;28;20056;-78
2021/12/01 12:47:10;;;;;;;1.73;0.38;;;20.40;99.90;;;;;;5040952;28;20056;-80
2021/12/01 12:50:08;;;;;;;0.30;0.20;;;20.30;99.90;;;;;;5047844;28;20155;-80
2021/12/01 12:52:38;;;;;;;0.68;0.35;;;20.30;99.90;;;;;;5037357;28;20045;-76
2021/12/01 12:55:32;;;;;;;1.73;0.40;;;20.20;99.90;;;;;;5035791;28;20029;-77
2021/12/01 12:58:02;;;;;;;1.00;0.65;;;20.20;99.90;;;;;;5016071;28;20117;-77
2021/12/01 13:00:34;;;;;;;0.77;0.43;;;20.20;99.90;;;;;;5039992;28;20111;-76
2021/12/01 13:03:23;;;;;;;1.48;0.55;;;20.20;99.90;;;;;;5039829;28;20029;-79
2021/12/01 13:05:52;;;;;;;1.73;0.70;;;20.20;99.90;;;;;;5041433;28;20084;-79
2021/12/01 13:08:32;;;;;;;1.45;0.60;;;20.10;99.90;;;;;;5048361;28;20110;-79